This is the latest recevied weather packets stored in our database for station/object KG7BDA. If no packets are shown the sender has not sent any weather packets the latest 1 day(s).
| Time | Temp. | Humidity | Pressure | Rain* | Wind** | Luminosity | Snow |
|---|---|---|---|---|---|---|---|
| 1778077282 | 10° C | 46% | 1020.4 hPa | 0 mm | - | - | - |
| 1778076923 | 9.44° C | 50% | 1020.3 hPa | 0 mm | - | - | - |
| 1778076562 | 8.89° C | 51% | 1020.3 hPa | 0 mm | - | - | - |
| 1778076202 | 8.89° C | 52% | 1020.4 hPa | 0 mm | - | - | - |
| 1778075842 | 8.33° C | 53% | 1020.4 hPa | 0 mm | - | - | - |
| 1778075482 | 8.33° C | 55% | 1020.2 hPa | 0 mm | - | - | - |
| 1778075122 | 7.78° C | 56% | 1020 hPa | 0 mm | - | - | - |
| 1778072242 | 6.11° C | 58% | 1019.5 hPa | 0 mm | - | - | - |
| 1778069722 | 5.56° C | 59% | 1019.1 hPa | 0 mm | - | - | - |
| 1778069363 | 5.56° C | 59% | 1019 hPa | 0 mm | - | - | - |
| 1778067922 | 6.67° C | 56% | 1018.8 hPa | 0 mm | - | - | - |
| 1778067562 | 6.67° C | 55% | 1018.6 hPa | 0 mm | - | - | - |
| 1778066122 | 5.56° C | 61% | 1018.6 hPa | 0 mm | - | - | - |
| 1778065762 | 5.56° C | 60% | 1018.5 hPa | 0 mm | - | - | - |
| 1778065042 | 6.11° C | 58% | 1018.4 hPa | 0 mm | - | - | - |
| 1778063962 | 6.11° C | 58% | 1018 hPa | 0 mm | - | - | - |
| 1778063602 | 6.11° C | 58% | 1017.9 hPa | 0 mm | - | - | - |
| 1778063242 | 6.11° C | 58% | 1017.8 hPa | 0 mm | - | - | - |
| 1778061442 | 7.22° C | 56% | 1017.4 hPa | 0 mm | - | - | - |
| 1778061082 | 7.22° C | 54% | 1017.5 hPa | 0 mm | - | - | - |
| 1778060722 | 7.78° C | 54% | 1017.4 hPa | 0 mm | - | - | - |
| 1778059642 | 8.33° C | 51% | 1017.4 hPa | 0 mm | - | - | - |
| 1778059282 | 8.33° C | 51% | 1017.2 hPa | 0 mm | - | - | - |
| 1778058562 | 8.89° C | 49% | 1017 hPa | 0 mm | - | - | - |
| 1778057842 | 9.44° C | 48% | 1016.8 hPa | 0 mm | - | - | - |
* Rain latest hour (hover to see other rain measurements)
** Current wind speed in m/s (hover to see current wind gust speed)